createdAt,value
2022-07-25T00:00:36.604Z,13.40
2022-07-25T00:05:40.740Z,13.00
2022-07-25T00:10:43.477Z,13.50
2022-07-25T00:15:46.268Z,11.60
2022-07-25T00:20:49.791Z,11.60
2022-07-25T00:25:52.736Z,12.50
2022-07-25T00:35:58.825Z,14.90
2022-07-25T00:46:05.526Z,12.30
2022-07-25T00:51:11.718Z,13.60
2022-07-25T01:01:18.419Z,15.60
2022-07-25T01:06:22.417Z,15.90
2022-07-25T01:11:27.995Z,12.60
2022-07-25T01:16:30.810Z,11.50
2022-07-25T01:21:33.585Z,16.10
2022-07-25T01:26:37.447Z,12.20
2022-07-25T01:31:40.511Z,10.80
2022-07-25T01:36:43.353Z,16.00
2022-07-25T01:41:46.099Z,14.30
2022-07-25T01:46:48.870Z,15.20
2022-07-25T01:51:51.647Z,14.60
2022-07-25T01:56:54.352Z,10.00
2022-07-25T02:01:57.778Z,9.30
2022-07-25T02:07:00.606Z,8.10
2022-07-25T02:12:03.743Z,9.60
2022-07-25T02:22:09.336Z,11.00
2022-07-25T02:27:12.074Z,12.90
2022-07-25T02:32:14.776Z,9.10
2022-07-25T02:37:17.467Z,10.10
2022-07-25T02:42:20.181Z,10.90
2022-07-25T02:47:23.343Z,13.80
2022-07-25T02:52:26.115Z,9.60
2022-07-25T02:57:28.860Z,12.80
2022-07-25T03:02:31.580Z,14.90
2022-07-25T03:07:34.981Z,12.40
2022-07-25T03:12:38.884Z,9.60
2022-07-25T03:17:42.385Z,9.00
2022-07-25T03:22:45.212Z,9.40
2022-07-25T03:27:47.934Z,11.10
2022-07-25T03:32:50.739Z,11.70
2022-07-25T03:37:53.938Z,14.10
2022-07-25T03:42:56.640Z,18.30
2022-07-25T03:47:59.381Z,16.50
2022-07-25T03:53:02.140Z,14.70
2022-07-25T03:58:04.842Z,16.90
2022-07-25T04:03:07.550Z,15.40
2022-07-25T04:08:10.317Z,18.20
2022-07-25T04:13:13.054Z,16.70
2022-07-25T04:18:15.903Z,14.30
2022-07-25T04:23:22.491Z,14.90
2022-07-25T04:28:25.542Z,16.20
2022-07-25T04:33:28.419Z,22.60
2022-07-25T04:43:33.893Z,13.80
2022-07-25T04:48:36.800Z,14.90
2022-07-25T04:53:39.609Z,20.60
2022-07-25T04:58:42.535Z,18.00
2022-07-25T05:08:53.467Z,14.90
2022-07-25T05:18:59.463Z,26.60
2022-07-25T05:29:04.872Z,15.10
2022-07-25T05:39:11.133Z,19.00
2022-07-25T05:44:14.236Z,19.40
2022-07-25T05:49:17.121Z,17.60
2022-07-25T05:54:19.927Z,28.60
2022-07-25T05:59:22.697Z,27.10
2022-07-25T06:04:27.223Z,30.60
2022-07-25T06:09:32.118Z,41.20
2022-07-25T06:14:34.904Z,41.80
2022-07-25T06:19:38.435Z,38.70
2022-07-25T06:24:41.157Z,22.40
2022-07-25T06:29:44.044Z,18.20
2022-07-25T06:34:46.779Z,9.70
2022-07-25T06:39:49.510Z,8.80
2022-07-25T06:44:52.244Z,8.70
2022-07-25T06:49:54.962Z,8.90
2022-07-25T06:54:57.723Z,11.20
2022-07-25T07:00:01.005Z,11.20
2022-07-25T07:05:03.966Z,9.50
2022-07-25T07:10:07.470Z,9.10
2022-07-25T07:15:11.682Z,15.80
2022-07-25T07:20:14.401Z,10.10
2022-07-25T07:25:19.642Z,29.60
2022-07-25T07:30:25.994Z,29.20
2022-07-25T07:35:36.245Z,9.00
2022-07-25T07:40:39.012Z,6.80
2022-07-25T07:45:42.398Z,7.20
2022-07-25T07:50:45.171Z,9.50
2022-07-25T07:55:55.225Z,6.70
2022-07-25T08:00:58.096Z,7.90
2022-07-25T08:06:04.864Z,12.70
2022-07-25T08:11:08.432Z,7.60
2022-07-25T08:16:13.819Z,11.20
2022-07-25T08:21:16.672Z,7.80
2022-07-25T08:26:19.518Z,6.90
2022-07-25T08:31:22.730Z,8.70
2022-07-25T08:36:25.472Z,6.60
2022-07-25T08:41:28.805Z,7.80
2022-07-25T08:46:31.787Z,6.90
2022-07-25T08:51:35.035Z,9.90
2022-07-25T08:56:37.764Z,10.10
2022-07-25T09:01:41.518Z,10.20
2022-07-25T09:06:52.041Z,10.30
2022-07-25T09:11:54.782Z,6.30
2022-07-25T09:16:57.834Z,8.00
2022-07-25T09:22:03.815Z,6.40
2022-07-25T09:27:12.442Z,6.80
2022-07-25T09:32:19.481Z,7.00
2022-07-25T09:37:27.156Z,7.10
2022-07-25T09:42:33.695Z,6.20
2022-07-25T09:47:38.736Z,8.80
2022-07-25T09:52:41.631Z,10.80
2022-07-25T09:57:47.555Z,8.90
2022-07-25T10:02:53.647Z,6.10
2022-07-25T10:07:57.489Z,8.40
2022-07-25T10:13:30.620Z,7.70
2022-07-25T10:18:34.519Z,6.20
2022-07-25T10:23:37.910Z,6.60
2022-07-25T10:28:47.027Z,8.80
2022-07-25T10:34:01.875Z,7.70
2022-07-25T10:39:09.708Z,6.20
2022-07-25T10:44:14.593Z,8.90
2022-07-25T10:49:31.701Z,6.80
2022-07-25T10:54:37.477Z,5.80
2022-07-25T10:59:40.722Z,4.40
2022-07-25T11:04:59.501Z,5.90
2022-07-25T11:10:05.812Z,5.90
2022-07-25T11:15:10.231Z,7.10
2022-07-25T11:20:16.748Z,6.80
2022-07-25T11:25:22.713Z,6.50
2022-07-25T11:30:29.041Z,6.90
2022-07-25T11:35:33.880Z,5.10
2022-07-25T11:40:44.082Z,8.80
2022-07-25T11:45:58.929Z,7.30
2022-07-25T11:51:18.664Z,5.30
2022-07-25T11:56:41.985Z,5.60
2022-07-25T12:01:47.687Z,5.20
2022-07-25T12:07:05.661Z,6.00
2022-07-25T12:12:08.724Z,4.10
2022-07-25T12:17:11.504Z,8.10
2022-07-25T12:22:14.240Z,6.60
2022-07-25T12:27:16.943Z,7.10
2022-07-25T12:32:19.657Z,9.90
2022-07-25T12:37:22.673Z,8.10
2022-07-25T12:42:27.269Z,5.20
2022-07-25T12:47:30.006Z,4.80
2022-07-25T12:52:33.084Z,9.00
2022-07-25T12:57:36.807Z,9.50
2022-07-25T13:02:40.507Z,5.70
2022-07-25T13:07:43.619Z,7.80
2022-07-25T13:12:46.861Z,4.40
2022-07-25T13:17:50.219Z,8.10
2022-07-25T13:22:52.939Z,5.90
2022-07-25T13:27:55.637Z,4.70
2022-07-25T13:32:58.328Z,4.40
2022-07-25T13:38:01.096Z,5.30
2022-07-25T13:43:03.826Z,5.50
2022-07-25T13:53:30.933Z,4.10
2022-07-25T13:58:33.821Z,4.60
2022-07-25T14:03:37.074Z,5.10
2022-07-25T14:08:40.695Z,6.90
2022-07-25T14:13:44.424Z,4.60
2022-07-25T14:18:47.518Z,4.30
2022-07-25T14:23:50.308Z,5.30
2022-07-25T14:28:53.160Z,6.00
2022-07-25T14:33:55.950Z,3.80
2022-07-25T14:38:58.828Z,5.30
2022-07-25T14:44:01.789Z,5.80
2022-07-25T14:49:05.627Z,4.60
2022-07-25T14:54:08.702Z,4.20
2022-07-25T14:59:11.843Z,6.70
2022-07-25T15:04:14.597Z,5.70
2022-07-25T15:09:18.748Z,7.40
2022-07-25T15:14:21.706Z,6.60
2022-07-25T15:19:24.561Z,4.10
2022-07-25T15:24:29.419Z,5.30
2022-07-25T15:29:32.334Z,4.30
2022-07-25T15:34:35.348Z,8.50
2022-07-25T15:39:38.131Z,3.80
2022-07-25T15:44:40.875Z,11.60
2022-07-25T15:49:43.744Z,4.20
2022-07-25T15:54:46.461Z,6.30
2022-07-25T15:59:49.179Z,5.70
2022-07-25T16:04:51.965Z,7.40
2022-07-25T16:09:55.718Z,4.50
2022-07-25T16:14:58.421Z,4.00
2022-07-25T16:20:01.114Z,4.50
2022-07-25T16:25:04.835Z,6.00
2022-07-25T16:30:08.393Z,4.70
2022-07-25T16:35:11.229Z,4.50
2022-07-25T16:40:14.612Z,6.30
2022-07-25T16:45:17.452Z,8.30
2022-07-25T16:50:21.436Z,13.80
2022-07-25T16:55:24.202Z,6.40
2022-07-25T17:00:27.041Z,5.40
2022-07-25T17:05:29.780Z,6.50
2022-07-25T17:10:32.551Z,4.80
2022-07-25T17:15:35.461Z,4.70
2022-07-25T17:20:38.241Z,8.40
2022-07-25T17:25:41.742Z,7.00
2022-07-25T17:30:44.536Z,10.00
2022-07-25T17:35:47.384Z,7.20
2022-07-25T17:40:50.206Z,6.20
2022-07-25T17:45:52.920Z,5.10
2022-07-25T17:50:55.697Z,6.90
2022-07-25T17:55:58.684Z,5.20
2022-07-25T18:01:02.621Z,7.00
2022-07-25T18:06:09.039Z,4.10
2022-07-25T18:11:12.034Z,6.60
2022-07-25T18:16:15.074Z,5.60
2022-07-25T18:21:17.912Z,5.60
2022-07-25T18:26:21.977Z,5.90
2022-07-25T18:31:24.806Z,6.70
2022-07-25T18:36:28.111Z,6.20
2022-07-25T18:41:31.115Z,6.10
2022-07-25T18:46:34.072Z,5.70
2022-07-25T18:51:37.020Z,6.40
2022-07-25T18:56:39.927Z,6.80
2022-07-25T19:01:42.782Z,5.70
2022-07-25T19:06:45.636Z,8.70
2022-07-25T19:11:48.508Z,9.00
2022-07-25T19:16:51.336Z,7.50
2022-07-25T19:21:54.363Z,6.00
2022-07-25T19:26:57.378Z,11.00
2022-07-25T19:32:00.105Z,6.00
2022-07-25T19:37:03.202Z,6.20
2022-07-25T19:42:09.960Z,5.80
2022-07-25T19:47:13.106Z,9.10
2022-07-25T19:52:15.891Z,7.10
2022-07-25T19:57:18.631Z,9.10
2022-07-25T20:02:21.499Z,5.70
2022-07-25T20:07:25.130Z,7.70
2022-07-25T20:12:27.871Z,6.30
2022-07-25T20:17:30.898Z,8.90
2022-07-25T20:22:37.782Z,7.80
2022-07-25T20:27:40.843Z,7.20
2022-07-25T20:32:43.631Z,10.00
2022-07-25T20:37:46.381Z,10.60
2022-07-25T20:42:49.708Z,10.20
2022-07-25T20:47:52.489Z,9.00
2022-07-25T20:52:55.356Z,10.10
2022-07-25T20:58:00.481Z,9.00
2022-07-25T21:03:03.323Z,10.90
2022-07-25T21:08:06.525Z,7.80
2022-07-25T21:13:09.298Z,8.80
2022-07-25T21:18:13.031Z,12.90
2022-07-25T21:23:16.913Z,9.30
2022-07-25T21:28:19.633Z,8.10
2022-07-25T21:33:22.437Z,7.70
2022-07-25T21:38:27.333Z,7.10
2022-07-25T21:43:31.829Z,7.70
2022-07-25T21:48:53.236Z,10.10
2022-07-25T21:53:57.294Z,8.50
2022-07-25T21:59:00.007Z,7.40
2022-07-25T22:09:07.011Z,13.60
2022-07-25T22:14:10.236Z,8.70
2022-07-25T22:19:13.277Z,9.70
2022-07-25T22:24:16.177Z,8.50
2022-07-25T22:29:19.074Z,13.40
2022-07-25T22:34:22.043Z,8.70
2022-07-25T22:39:25.027Z,7.00
2022-07-25T22:44:28.883Z,8.00
2022-07-25T22:49:31.820Z,8.30
2022-07-25T22:54:35.335Z,10.70
2022-07-25T22:59:38.199Z,8.80
2022-07-25T23:04:41.132Z,8.50
2022-07-25T23:09:44.111Z,8.10
2022-07-25T23:14:46.936Z,7.40
2022-07-25T23:19:55.801Z,7.40
2022-07-25T23:24:58.876Z,8.10
2022-07-25T23:30:03.308Z,7.80
2022-07-25T23:35:06.784Z,9.40
2022-07-25T23:40:10.672Z,10.90
2022-07-25T23:45:25.015Z,8.90
2022-07-25T23:50:36.749Z,7.40
2022-07-25T23:55:39.623Z,8.50
